Time;durP1;ratioP1;P1;durP2;ratioP2;P2;SDS_P1;SDS_P2;PMS_P1;PMS_P2;Temp;Humidity;BMP_temperature;BMP_pressure;BME280_temperature;BME280_humidity;BME280_pressure;Samples;Min_cycle;Max_cycle;Signal;HPM_P1;HPM_P2
2022/03/04 00:01:06;;;;;;;146.93;69.68;;;;;;;;;;5034429;28;20035;-60
2022/03/04 00:03:32;;;;;;;156.35;73.95;;;;;;;;;;5034202;28;20030;-60
2022/03/04 00:05:58;;;;;;;124.63;59.40;;;;;;;;;;5034494;28;20017;-59
2022/03/04 00:08:24;;;;;;;118.60;56.47;;;;;;;;;;5034779;28;20026;-60
2022/03/04 00:10:50;;;;;;;96.88;48.25;;;;;;;;;;5033370;28;20431;-61
2022/03/04 00:13:16;;;;;;;91.60;44.28;;;;;;;;;;5033098;28;20030;-61
2022/03/04 00:15:43;;;;;;;85.82;41.50;;;;;;;;;;5034644;28;20021;-61
2022/03/04 00:18:09;;;;;;;152.93;77.45;;;;;;;;;;5034358;28;20021;-59
2022/03/04 00:20:35;;;;;;;165.35;81.28;;;;;;;;;;5034483;28;20032;-58
2022/03/04 00:23:02;;;;;;;181.25;89.57;;;;;;;;;;5034628;28;20035;-61
2022/03/04 00:25:28;;;;;;;178.18;83.43;;;;;;;;;;5034775;28;20096;-61
2022/03/04 00:27:54;;;;;;;165.80;77.38;;;;;;;;;;5034435;28;20024;-61
2022/03/04 00:30:20;;;;;;;162.57;71.75;;;;;;;;;;5034055;28;20441;-60
2022/03/04 00:32:47;;;;;;;130.52;63.53;;;;;;;;;;5032741;28;20033;-60
2022/03/04 00:35:13;;;;;;;102.40;47.60;;;;;;;;;;5034554;28;20118;-61
2022/03/04 00:37:40;;;;;;;97.35;46.50;;;;;;;;;;5034176;28;20017;-61
2022/03/04 00:40:07;;;;;;;89.13;44.42;;;;;;;;;;5032703;28;20047;-62
2022/03/04 00:42:34;;;;;;;88.00;43.15;;;;;;;;;;5032906;28;20025;-60
2022/03/04 00:45:00;;;;;;;80.75;41.00;;;;;;;;;;5033576;28;20484;-60
2022/03/04 00:47:26;;;;;;;82.07;40.20;;;;;;;;;;5033499;28;20032;-59
2022/03/04 00:49:52;;;;;;;98.78;47.90;;;;;;;;;;5032426;28;20072;-61
2022/03/04 00:52:18;;;;;;;98.35;48.80;;;;;;;;;;5033725;28;20018;-60
2022/03/04 00:54:45;;;;;;;98.18;49.15;;;;;;;;;;5033668;28;20355;-60
2022/03/04 00:57:11;;;;;;;93.30;47.28;;;;;;;;;;5033699;28;20374;-59
2022/03/04 00:59:37;;;;;;;92.13;46.45;;;;;;;;;;5033579;28;20025;-60
2022/03/04 01:02:03;;;;;;;104.47;50.33;;;;;;;;;;5033643;28;20021;-59
2022/03/04 01:04:29;;;;;;;94.32;46.60;;;;;;;;;;5033798;28;20348;-61
2022/03/04 01:06:55;;;;;;;61.75;30.08;;;;;;;;;;5033562;28;20429;-60
2022/03/04 01:09:22;;;;;;;50.47;27.45;;;;;;;;;;5033450;28;20081;-62
2022/03/04 01:11:48;;;;;;;50.97;24.80;;;;;;;;;;5033716;28;20045;-59
2022/03/04 01:14:15;;;;;;;49.00;24.15;;;;;;;;;;5033167;28;20029;-61
2022/03/04 01:16:41;;;;;;;45.38;22.60;;;;;;;;;;5033666;28;20022;-61
2022/03/04 01:19:07;;;;;;;53.22;25.48;;;;;;;;;;5033406;28;20076;-60
2022/03/04 01:21:34;;;;;;;46.92;22.40;;;;;;;;;;5033341;28;20494;-60
2022/03/04 01:24:00;;;;;;;71.28;32.25;;;;;;;;;;5033235;28;20100;-60
2022/03/04 01:26:26;;;;;;;78.72;35.03;;;;;;;;;;5033324;28;20018;-61
2022/03/04 01:28:53;;;;;;;61.00;27.42;;;;;;;;;;5033631;28;20422;-60
2022/03/04 01:31:19;;;;;;;62.15;29.05;;;;;;;;;;5033477;28;20038;-61
2022/03/04 01:33:45;;;;;;;64.45;29.70;;;;;;;;;;5033814;28;20029;-60
2022/03/04 01:36:11;;;;;;;61.65;27.75;;;;;;;;;;5032945;28;20022;-61
2022/03/04 01:38:37;;;;;;;59.38;28.83;;;;;;;;;;5032423;28;20044;-59
2022/03/04 01:41:04;;;;;;;56.28;25.05;;;;;;;;;;5033166;28;20029;-57
2022/03/04 01:43:30;;;;;;;69.22;33.05;;;;;;;;;;5032870;28;20382;-61
2022/03/04 01:45:56;;;;;;;69.63;32.85;;;;;;;;;;5033185;28;20055;-59
2022/03/04 01:48:23;;;;;;;67.68;30.27;;;;;;;;;;5032192;28;20025;-60
2022/03/04 01:50:50;;;;;;;68.53;30.40;;;;;;;;;;5033023;28;20033;-60
2022/03/04 01:53:16;;;;;;;61.83;29.95;;;;;;;;;;5033039;28;20029;-61
2022/03/04 01:55:42;;;;;;;98.97;44.50;;;;;;;;;;5032070;28;20462;-60
2022/03/04 01:58:08;;;;;;;138.27;67.95;;;;;;;;;;5032944;28;20029;-61
2022/03/04 02:00:35;;;;;;;112.45;53.05;;;;;;;;;;5033280;28;20117;-62
2022/03/04 02:03:01;;;;;;;115.00;57.03;;;;;;;;;;5033016;28;20036;-62
2022/03/04 02:05:27;;;;;;;108.38;52.80;;;;;;;;;;5033285;28;20021;-60
2022/03/04 02:07:54;;;;;;;122.80;59.40;;;;;;;;;;5033198;28;20101;-60
2022/03/04 02:10:20;;;;;;;120.00;60.15;;;;;;;;;;5033342;28;20030;-59
2022/03/04 02:12:46;;;;;;;113.05;53.78;;;;;;;;;;5032898;28;20061;-60
2022/03/04 02:15:12;;;;;;;116.28;55.38;;;;;;;;;;5032839;28;20036;-60
2022/03/04 02:17:39;;;;;;;118.35;54.90;;;;;;;;;;5032389;28;20025;-60
2022/03/04 02:20:05;;;;;;;77.72;37.85;;;;;;;;;;5032850;28;20056;-60
2022/03/04 02:22:32;;;;;;;61.33;29.98;;;;;;;;;;5033031;28;20044;-60
2022/03/04 02:24:58;;;;;;;53.20;27.33;;;;;;;;;;5032997;28;20046;-60
2022/03/04 02:27:24;;;;;;;54.75;28.35;;;;;;;;;;5034434;28;20049;-60
2022/03/04 02:29:51;;;;;;;53.83;27.77;;;;;;;;;;5036497;28;20025;-60
2022/03/04 02:32:18;;;;;;;51.03;28.45;;;;;;;;;;5036254;28;20025;-58
2022/03/04 02:34:44;;;;;;;53.13;25.60;;;;;;;;;;5036526;28;20104;-60
2022/03/04 02:37:10;;;;;;;58.33;28.88;;;;;;;;;;5036208;28;20029;-60
2022/03/04 02:39:36;;;;;;;59.70;28.67;;;;;;;;;;5036319;28;20367;-60
2022/03/04 02:42:03;;;;;;;58.28;27.98;;;;;;;;;;5036435;28;20417;-60
2022/03/04 02:44:29;;;;;;;60.47;28.90;;;;;;;;;;5037101;28;20033;-60
2022/03/04 02:46:55;;;;;;;57.42;29.50;;;;;;;;;;5036092;28;20417;-59
2022/03/04 02:49:21;;;;;;;56.25;27.23;;;;;;;;;;5036909;28;20529;-60
2022/03/04 02:51:47;;;;;;;61.05;29.48;;;;;;;;;;5036366;28;20033;-60
2022/03/04 02:54:13;;;;;;;63.78;29.23;;;;;;;;;;5035862;28;20025;-60
2022/03/04 02:56:39;;;;;;;162.05;56.40;;;;;;;;;;5036243;28;20020;-60
2022/03/04 02:59:06;;;;;;;59.28;29.05;;;;;;;;;;5035463;28;20033;-61
2022/03/04 03:01:32;;;;;;;66.80;28.80;;;;;;;;;;5036013;28;20021;-59
2022/03/04 03:03:58;;;;;;;53.55;26.17;;;;;;;;;;5035919;28;20109;-58
2022/03/04 03:06:24;;;;;;;60.97;28.95;;;;;;;;;;5035640;28;20021;-59
2022/03/04 03:08:50;;;;;;;72.03;32.55;;;;;;;;;;5035800;28;20048;-60
2022/03/04 03:11:16;;;;;;;55.00;27.08;;;;;;;;;;5035749;28;20367;-60
2022/03/04 03:13:42;;;;;;;84.72;35.75;;;;;;;;;;5035147;28;20051;-59
2022/03/04 03:16:08;;;;;;;49.85;24.85;;;;;;;;;;5035441;28;20022;-60
2022/03/04 03:18:35;;;;;;;66.90;31.77;;;;;;;;;;5035850;28;20029;-57
2022/03/04 03:21:01;;;;;;;80.53;35.17;;;;;;;;;;5035307;28;20032;-59
2022/03/04 03:23:27;;;;;;;74.55;34.95;;;;;;;;;;5035627;28;20041;-59
2022/03/04 03:25:53;;;;;;;78.05;34.88;;;;;;;;;;5035321;28;20105;-60
2022/03/04 03:28:19;;;;;;;70.50;32.30;;;;;;;;;;5034893;28;20026;-59
2022/03/04 03:30:45;;;;;;;60.58;28.73;;;;;;;;;;5035399;28;20039;-60
2022/03/04 03:33:12;;;;;;;68.50;36.05;;;;;;;;;;5035402;28;20025;-58
2022/03/04 03:35:38;;;;;;;92.63;50.60;;;;;;;;;;5034010;28;20055;-61
2022/03/04 03:38:04;;;;;;;77.95;42.10;;;;;;;;;;5034742;28;20057;-61
2022/03/04 03:40:30;;;;;;;72.13;39.15;;;;;;;;;;5034508;28;20082;-59
2022/03/04 03:42:56;;;;;;;73.50;38.10;;;;;;;;;;5034657;28;20104;-59
2022/03/04 03:45:22;;;;;;;82.50;38.72;;;;;;;;;;5035213;28;20013;-59
2022/03/04 03:47:48;;;;;;;78.28;38.33;;;;;;;;;;5034868;28;20493;-57
2022/03/04 03:50:15;;;;;;;77.72;38.58;;;;;;;;;;5034750;28;20038;-59
2022/03/04 03:52:41;;;;;;;73.78;38.38;;;;;;;;;;5035194;28;20036;-60
2022/03/04 03:55:07;;;;;;;79.40;38.65;;;;;;;;;;5034783;28;20087;-60
2022/03/04 03:57:33;;;;;;;76.72;38.58;;;;;;;;;;5034743;28;20026;-57
2022/03/04 04:00:00;;;;;;;78.68;38.65;;;;;;;;;;5034863;28;20029;-60
2022/03/04 04:02:26;;;;;;;81.22;37.45;;;;;;;;;;5034472;28;20034;-59
2022/03/04 04:04:52;;;;;;;76.05;34.83;;;;;;;;;;5035120;28;20083;-59
2022/03/04 04:07:18;;;;;;;64.32;31.25;;;;;;;;;;5034446;28;20466;-59
2022/03/04 04:09:44;;;;;;;59.85;30.52;;;;;;;;;;5034345;28;20033;-59
2022/03/04 04:12:11;;;;;;;72.70;38.15;;;;;;;;;;5034380;28;20501;-60
2022/03/04 04:14:37;;;;;;;72.72;35.30;;;;;;;;;;5035062;28;20116;-60
2022/03/04 04:17:03;;;;;;;71.78;30.95;;;;;;;;;;5034228;28;20040;-60
2022/03/04 04:19:29;;;;;;;66.30;30.85;;;;;;;;;;5034467;28;20025;-59
2022/03/04 04:21:55;;;;;;;57.38;28.90;;;;;;;;;;5034443;28;20062;-60
2022/03/04 04:24:21;;;;;;;60.33;30.27;;;;;;;;;;5033933;28;20041;-58
2022/03/04 04:26:48;;;;;;;60.42;30.20;;;;;;;;;;5034396;28;20021;-60
2022/03/04 04:29:14;;;;;;;62.95;31.17;;;;;;;;;;5033978;28;20029;-59
2022/03/04 04:31:41;;;;;;;67.75;33.47;;;;;;;;;;5033936;28;20462;-59
2022/03/04 04:34:07;;;;;;;64.78;33.65;;;;;;;;;;5033961;28;20025;-59
2022/03/04 04:36:33;;;;;;;65.15;31.00;;;;;;;;;;5033942;28;20082;-59
2022/03/04 04:38:59;;;;;;;62.92;31.42;;;;;;;;;;5033595;28;20462;-60
2022/03/04 04:41:25;;;;;;;65.05;30.50;;;;;;;;;;5034150;28;20415;-59
2022/03/04 04:43:51;;;;;;;69.47;32.65;;;;;;;;;;5034039;28;20130;-61
2022/03/04 04:46:18;;;;;;;64.80;32.80;;;;;;;;;;5033747;28;20378;-60
2022/03/04 04:48:44;;;;;;;64.93;31.95;;;;;;;;;;5034000;28;20025;-59
2022/03/04 04:51:10;;;;;;;60.88;31.35;;;;;;;;;;5033278;28;20029;-59
2022/03/04 04:53:38;;;;;;;63.08;31.05;;;;;;;;;;5033850;28;20028;-60
2022/03/04 04:56:04;;;;;;;58.78;29.95;;;;;;;;;;5033675;28;20351;-60
2022/03/04 04:58:31;;;;;;;71.35;34.35;;;;;;;;;;5033508;28;20351;-61
2022/03/04 05:00:57;;;;;;;75.53;33.90;;;;;;;;;;5033822;28;20163;-61
2022/03/04 05:03:24;;;;;;;77.53;36.72;;;;;;;;;;5033834;28;20026;-60
2022/03/04 05:05:50;;;;;;;71.43;35.17;;;;;;;;;;5033515;28;20033;-60
2022/03/04 05:08:17;;;;;;;74.35;36.08;;;;;;;;;;5033413;28;20026;-59
2022/03/04 05:10:43;;;;;;;80.32;35.10;;;;;;;;;;5033661;28;20034;-61
2022/03/04 05:13:10;;;;;;;68.88;32.17;;;;;;;;;;5033685;28;20036;-61
2022/03/04 05:15:36;;;;;;;64.20;30.27;;;;;;;;;;5033341;28;20026;-59
2022/03/04 05:18:02;;;;;;;59.45;29.27;;;;;;;;;;5033611;28;20593;-59
2022/03/04 05:20:28;;;;;;;64.43;30.65;;;;;;;;;;5033355;28;20053;-61
2022/03/04 05:22:55;;;;;;;70.90;32.55;;;;;;;;;;5033362;28;20030;-59
2022/03/04 05:25:21;;;;;;;70.45;33.88;;;;;;;;;;5033258;28;20053;-60
2022/03/04 05:27:47;;;;;;;78.40;35.42;;;;;;;;;;5033205;28;20049;-61
2022/03/04 05:30:13;;;;;;;71.72;32.40;;;;;;;;;;5033508;28;20037;-61
2022/03/04 05:32:39;;;;;;;63.22;32.28;;;;;;;;;;5033494;28;20025;-61
2022/03/04 05:35:06;;;;;;;72.70;32.90;;;;;;;;;;5032879;28;20029;-60
2022/03/04 05:37:33;;;;;;;65.82;31.27;;;;;;;;;;5033851;28;20032;-61
2022/03/04 05:39:59;;;;;;;62.90;32.10;;;;;;;;;;5033676;28;20488;-59
2022/03/04 05:42:26;;;;;;;72.18;29.83;;;;;;;;;;5032906;28;20152;-60
2022/03/04 05:44:52;;;;;;;65.55;32.58;;;;;;;;;;5033450;28;20022;-61
2022/03/04 05:47:18;;;;;;;68.65;34.40;;;;;;;;;;5032850;28;20547;-59
2022/03/04 05:49:45;;;;;;;59.47;30.00;;;;;;;;;;5033364;28;20104;-62
2022/03/04 05:52:11;;;;;;;54.28;28.23;;;;;;;;;;5033256;28;20032;-60
2022/03/04 05:54:37;;;;;;;66.18;31.10;;;;;;;;;;5032887;28;20033;-60
2022/03/04 05:57:03;;;;;;;64.13;32.83;;;;;;;;;;5032941;28;20459;-58
2022/03/04 05:59:30;;;;;;;65.53;31.95;;;;;;;;;;5033855;28;20033;-59
2022/03/04 06:01:56;;;;;;;67.93;34.13;;;;;;;;;;5033947;28;20033;-60
2022/03/04 06:04:23;;;;;;;71.28;36.50;;;;;;;;;;5036794;28;20078;-61
2022/03/04 06:06:49;;;;;;;75.95;36.28;;;;;;;;;;5036969;28;20378;-60
2022/03/04 06:09:15;;;;;;;71.32;34.92;;;;;;;;;;5035463;28;20026;-59
2022/03/04 06:11:41;;;;;;;68.50;34.70;;;;;;;;;;5035391;28;20034;-58
2022/03/04 06:14:08;;;;;;;72.60;36.88;;;;;;;;;;5035376;28;20386;-59
2022/03/04 06:16:34;;;;;;;63.55;33.50;;;;;;;;;;5035369;28;20032;-60
2022/03/04 06:19:00;;;;;;;57.53;29.50;;;;;;;;;;5036130;28;20035;-60
2022/03/04 06:21:26;;;;;;;60.35;30.92;;;;;;;;;;5035963;28;20025;-57
2022/03/04 06:23:52;;;;;;;50.20;25.42;;;;;;;;;;5034428;28;20174;-59
2022/03/04 06:26:20;;;;;;;44.08;21.05;;;;;;;;;;5034528;28;20013;-59
2022/03/04 06:28:46;;;;;;;38.42;19.38;;;;;;;;;;5036125;28;20056;-58
2022/03/04 06:31:12;;;;;;;44.42;21.58;;;;;;;;;;5035916;28;20036;-60
2022/03/04 06:33:40;;;;;;;40.83;21.30;;;;;;;;;;5035540;28;20028;-61
2022/03/04 06:36:06;;;;;;;44.85;20.77;;;;;;;;;;5035858;28;20048;-59
2022/03/04 06:38:34;;;;;;;40.72;21.05;;;;;;;;;;5036059;28;20025;-58
2022/03/04 06:41:00;;;;;;;42.25;21.45;;;;;;;;;;5035879;28;20049;-58
2022/03/04 06:43:26;;;;;;;43.05;23.55;;;;;;;;;;5036076;28;20370;-59
2022/03/04 06:45:53;;;;;;;65.80;32.03;;;;;;;;;;5036266;28;20056;-58
2022/03/04 06:48:21;;;;;;;65.40;32.40;;;;;;;;;;5036211;28;20141;-60
2022/03/04 06:50:48;;;;;;;66.38;35.03;;;;;;;;;;5035545;28;20482;-59
2022/03/04 06:53:14;;;;;;;63.60;32.72;;;;;;;;;;5036229;28;20026;-60
2022/03/04 06:55:40;;;;;;;66.07;34.05;;;;;;;;;;5035858;28;20021;-60
2022/03/04 06:58:06;;;;;;;70.82;34.50;;;;;;;;;;5035757;28;20057;-59
2022/03/04 07:00:32;;;;;;;65.38;32.95;;;;;;;;;;5036101;28;20025;-60
2022/03/04 07:02:58;;;;;;;71.85;35.65;;;;;;;;;;5036280;28;20057;-61
2022/03/04 07:05:25;;;;;;;68.45;35.67;;;;;;;;;;5035795;28;20021;-59
2022/03/04 07:07:52;;;;;;;63.92;33.03;;;;;;;;;;5035883;28;20455;-60
2022/03/04 07:10:18;;;;;;;70.05;33.65;;;;;;;;;;5035767;28;20388;-59
2022/03/04 07:12:45;;;;;;;68.28;35.00;;;;;;;;;;5035112;28;20057;-60
2022/03/04 07:15:11;;;;;;;70.10;36.20;;;;;;;;;;5035562;28;20013;-61
2022/03/04 07:17:37;;;;;;;75.32;36.88;;;;;;;;;;5035976;28;20030;-60
2022/03/04 07:20:04;;;;;;;86.18;39.17;;;;;;;;;;5035739;28;20026;-59
2022/03/04 07:22:30;;;;;;;82.72;41.63;;;;;;;;;;5035770;28;20473;-59
2022/03/04 07:24:57;;;;;;;74.53;37.15;;;;;;;;;;5035411;28;20210;-57
2022/03/04 07:27:23;;;;;;;63.20;32.88;;;;;;;;;;5035479;28;20017;-58
2022/03/04 07:29:49;;;;;;;65.82;35.10;;;;;;;;;;5035287;28;20414;-60
2022/03/04 07:32:15;;;;;;;63.40;31.42;;;;;;;;;;5034897;28;20466;-58
2022/03/04 07:34:41;;;;;;;69.20;34.58;;;;;;;;;;5035415;28;20079;-59
2022/03/04 07:37:07;;;;;;;59.40;29.10;;;;;;;;;;5035063;28;20387;-60
2022/03/04 07:39:34;;;;;;;66.35;32.25;;;;;;;;;;5034676;28;20018;-60
2022/03/04 07:42:01;;;;;;;72.05;36.90;;;;;;;;;;5034999;28;20463;-59
2022/03/04 07:44:28;;;;;;;62.85;33.58;;;;;;;;;;5035245;28;20017;-59
2022/03/04 07:46:54;;;;;;;44.55;24.23;;;;;;;;;;5035144;28;20096;-58
2022/03/04 07:49:20;;;;;;;54.47;27.15;;;;;;;;;;5034890;28;20025;-59
2022/03/04 07:51:47;;;;;;;68.20;33.90;;;;;;;;;;5034509;28;20025;-59
2022/03/04 07:54:13;;;;;;;75.75;39.15;;;;;;;;;;5034731;28;20481;-61
2022/03/04 07:56:40;;;;;;;74.22;36.50;;;;;;;;;;5034981;28;20068;-60
2022/03/04 07:59:07;;;;;;;72.75;35.92;;;;;;;;;;5034694;28;20100;-60
2022/03/04 08:01:33;;;;;;;55.60;30.88;;;;;;;;;;5034546;28;20032;-61
2022/03/04 08:03:59;;;;;;;65.85;34.80;;;;;;;;;;5034460;28;20014;-60
2022/03/04 08:06:25;;;;;;;67.40;33.83;;;;;;;;;;5034754;28;20047;-61
2022/03/04 08:08:52;;;;;;;67.63;32.92;;;;;;;;;;5033107;28;20032;-59
2022/03/04 08:11:18;;;;;;;61.83;31.25;;;;;;;;;;5035193;28;20034;-61
2022/03/04 08:13:44;;;;;;;56.75;27.50;;;;;;;;;;5034822;28;20128;-60
2022/03/04 08:16:10;;;;;;;54.53;28.05;;;;;;;;;;5033754;28;20017;-60
2022/03/04 08:18:36;;;;;;;57.03;27.88;;;;;;;;;;5033456;28;20021;-59
2022/03/04 08:21:03;;;;;;;74.75;39.72;;;;;;;;;;5035031;28;20033;-58
2022/03/04 08:23:30;;;;;;;59.03;32.28;;;;;;;;;;5034716;28;20054;-59
2022/03/04 08:25:57;;;;;;;51.40;27.60;;;;;;;;;;5034234;28;20029;-59
2022/03/04 08:28:23;;;;;;;50.30;26.75;;;;;;;;;;5033850;28;20494;-60
2022/03/04 08:30:49;;;;;;;47.17;25.60;;;;;;;;;;5034261;28;20040;-58
2022/03/04 08:33:16;;;;;;;52.88;27.90;;;;;;;;;;5033027;28;20049;-60
2022/03/04 08:35:42;;;;;;;47.80;25.50;;;;;;;;;;5033645;28;20536;-61
2022/03/04 08:38:08;;;;;;;48.42;25.15;;;;;;;;;;5034222;28;20047;-59
2022/03/04 08:40:34;;;;;;;49.28;25.77;;;;;;;;;;5033798;28;20053;-60
2022/03/04 08:43:00;;;;;;;49.40;25.63;;;;;;;;;;5033893;28;20029;-60
2022/03/04 08:45:27;;;;;;;49.55;22.65;;;;;;;;;;5034418;28;20178;-59
2022/03/04 08:47:53;;;;;;;38.83;21.92;;;;;;;;;;5034105;28;20379;-59
2022/03/04 08:50:21;;;;;;;44.00;24.90;;;;;;;;;;5033948;28;20072;-58
2022/03/04 08:52:48;;;;;;;46.17;24.58;;;;;;;;;;5033979;28;20037;-59
2022/03/04 08:55:14;;;;;;;43.95;23.45;;;;;;;;;;5034012;28;20022;-59
2022/03/04 08:57:50;;;;;;;45.75;23.58;;;;;;;;;;5033102;28;20379;-60
2022/03/04 09:00:16;;;;;;;52.13;25.25;;;;;;;;;;5033530;28;20168;-60
2022/03/04 09:02:43;;;;;;;49.08;25.67;;;;;;;;;;5032570;28;20025;-60
2022/03/04 09:05:09;;;;;;;40.17;24.50;;;;;;;;;;5033024;28;20374;-61
2022/03/04 09:07:36;;;;;;;35.42;19.48;;;;;;;;;;5033508;28;20024;-61
2022/03/04 09:10:02;;;;;;;37.50;19.75;;;;;;;;;;5033141;28;20032;-57
2022/03/04 09:12:28;;;;;;;35.10;19.02;;;;;;;;;;5032696;28;20032;-60
2022/03/04 09:14:54;;;;;;;37.22;18.23;;;;;;;;;;5033319;28;20018;-60
2022/03/04 09:17:20;;;;;;;30.92;17.05;;;;;;;;;;5033256;28;20024;-60
2022/03/04 09:19:46;;;;;;;29.02;17.98;;;;;;;;;;5033184;28;20028;-60
2022/03/04 09:22:13;;;;;;;30.02;17.67;;;;;;;;;;5032943;28;20025;-60
2022/03/04 09:24:39;;;;;;;48.05;25.30;;;;;;;;;;5032192;28;20052;-60
2022/03/04 09:27:06;;;;;;;35.60;20.60;;;;;;;;;;5032539;28;20026;-61
2022/03/04 09:29:33;;;;;;;34.70;19.33;;;;;;;;;;5033129;28;20492;-60
2022/03/04 09:31:59;;;;;;;40.55;22.85;;;;;;;;;;5032908;28;20030;-68
2022/03/04 09:34:25;;;;;;;34.33;18.58;;;;;;;;;;5033419;28;20071;-66
2022/03/04 09:36:52;;;;;;;33.45;18.90;;;;;;;;;;5033602;28;20029;-59
2022/03/04 09:39:18;;;;;;;40.60;21.92;;;;;;;;;;5037121;28;20056;-61
2022/03/04 09:41:45;;;;;;;36.40;18.55;;;;;;;;;;5035482;28;20526;-61
2022/03/04 09:44:15;;;;;;;30.77;18.20;;;;;;;;;;5036074;28;20021;-59
2022/03/04 09:46:42;;;;;;;34.15;17.52;;;;;;;;;;5036927;28;20024;-61
2022/03/04 09:49:09;;;;;;;33.70;18.48;;;;;;;;;;5037437;28;20025;-60
2022/03/04 09:51:35;;;;;;;43.58;27.98;;;;;;;;;;5037326;28;20044;-60
2022/03/04 09:54:01;;;;;;;28.83;18.88;;;;;;;;;;5037064;28;20025;-60
2022/03/04 09:56:28;;;;;;;27.33;17.75;;;;;;;;;;5036980;28;20457;-59
2022/03/04 09:58:54;;;;;;;31.95;18.55;;;;;;;;;;5036621;28;20366;-61
2022/03/04 10:01:20;;;;;;;29.38;18.52;;;;;;;;;;5036865;28;20033;-59
2022/03/04 10:03:50;;;;;;;28.55;18.95;;;;;;;;;;5037117;28;20013;-60
2022/03/04 10:06:17;;;;;;;28.48;18.10;;;;;;;;;;5036481;28;20074;-60
2022/03/04 10:08:45;;;;;;;29.10;17.55;;;;;;;;;;5036926;28;20029;-60
2022/03/04 10:11:12;;;;;;;29.52;18.50;;;;;;;;;;5037127;28;20376;-60
2022/03/04 10:13:42;;;;;;;30.33;18.27;;;;;;;;;;5037018;28;20026;-60
2022/03/04 10:16:08;;;;;;;29.70;17.75;;;;;;;;;;5037036;28;20085;-61
2022/03/04 10:18:35;;;;;;;32.40;17.92;;;;;;;;;;5036648;28;20492;-61
2022/03/04 10:21:01;;;;;;;26.55;17.27;;;;;;;;;;5036744;28;20025;-60
2022/03/04 10:23:27;;;;;;;30.52;17.88;;;;;;;;;;5036487;28;20041;-60
2022/03/04 10:25:54;;;;;;;29.95;18.58;;;;;;;;;;5036793;28;20052;-60
2022/03/04 10:28:25;;;;;;;32.92;18.42;;;;;;;;;;5036413;28;20052;-60
2022/03/04 10:30:52;;;;;;;36.10;19.08;;;;;;;;;;5036279;28;20037;-60
2022/03/04 10:33:22;;;;;;;33.08;19.33;;;;;;;;;;5036512;28;20147;-60
2022/03/04 10:35:50;;;;;;;32.97;22.48;;;;;;;;;;5036824;28;20053;-59
2022/03/04 10:38:35;;;;;;;33.47;20.48;;;;;;;;;;5036854;28;20123;-61
2022/03/04 10:41:01;;;;;;;31.55;18.52;;;;;;;;;;5035590;28;20109;-60
2022/03/04 10:43:31;;;;;;;31.05;18.27;;;;;;;;;;5036153;28;20021;-59
2022/03/04 10:46:02;;;;;;;30.88;18.67;;;;;;;;;;5036604;28;20530;-59
2022/03/04 10:48:29;;;;;;;29.17;17.92;;;;;;;;;;5035501;28;20029;-60
2022/03/04 10:50:56;;;;;;;29.95;19.55;;;;;;;;;;5036084;28;20037;-59
2022/03/04 10:53:26;;;;;;;28.65;18.35;;;;;;;;;;5036238;28;20080;-59
2022/03/04 10:55:54;;;;;;;25.35;19.38;;;;;;;;;;5035566;28;20231;-60
2022/03/04 10:58:27;;;;;;;26.83;17.58;;;;;;;;;;5036064;28;20029;-59
2022/03/04 11:00:54;;;;;;;30.88;18.88;;;;;;;;;;5036073;28;20036;-60
2022/03/04 11:03:22;;;;;;;28.33;18.70;;;;;;;;;;5035816;28;20508;-60
2022/03/04 11:05:49;;;;;;;25.30;16.85;;;;;;;;;;5036211;28;20017;-60
2022/03/04 11:08:17;;;;;;;38.38;26.17;;;;;;;;;;5035968;28;20465;-60
2022/03/04 11:10:43;;;;;;;26.58;18.60;;;;;;;;;;5035252;28;20034;-60
2022/03/04 11:13:10;;;;;;;24.25;17.83;;;;;;;;;;5035868;28;20155;-61
2022/03/04 11:15:37;;;;;;;25.92;16.95;;;;;;;;;;5035610;28;20380;-61
2022/03/04 11:18:08;;;;;;;26.25;18.25;;;;;;;;;;5035763;28;20021;-61
2022/03/04 11:20:34;;;;;;;32.58;21.77;;;;;;;;;;5035784;28;20049;-60
2022/03/04 11:23:01;;;;;;;48.50;28.02;;;;;;;;;;5035229;28;20028;-60
2022/03/04 11:25:34;;;;;;;27.63;18.23;;;;;;;;;;5036253;28;20055;-60
2022/03/04 11:28:08;;;;;;;26.83;18.92;;;;;;;;;;5035210;28;20083;-60
2022/03/04 11:30:37;;;;;;;26.52;16.83;;;;;;;;;;5035258;28;20029;-60
2022/03/04 11:33:16;;;;;;;24.23;18.38;;;;;;;;;;5035236;28;20025;-61
2022/03/04 11:35:42;;;;;;;30.98;20.65;;;;;;;;;;5035394;28;20474;-62
2022/03/04 11:38:09;;;;;;;27.35;18.17;;;;;;;;;;5035217;28;20026;-60
2022/03/04 11:40:35;;;;;;;25.35;16.63;;;;;;;;;;5035310;28;20017;-62
2022/03/04 11:43:05;;;;;;;21.48;16.35;;;;;;;;;;5034968;28;20071;-61
2022/03/04 11:45:35;;;;;;;25.42;17.88;;;;;;;;;;5034874;28;20022;-60
2022/03/04 11:48:06;;;;;;;19.70;14.18;;;;;;;;;;5035834;28;20083;-60
2022/03/04 11:50:34;;;;;;;20.83;14.93;;;;;;;;;;5034913;28;20033;-60
2022/03/04 11:53:20;;;;;;;35.97;20.33;;;;;;;;;;5034796;28;20083;-61
2022/03/04 11:56:04;;;;;;;29.02;20.98;;;;;;;;;;5034787;28;20021;-61
2022/03/04 11:58:50;;;;;;;28.55;20.35;;;;;;;;;;5034293;28;20032;-61
2022/03/04 12:01:17;;;;;;;28.73;19.15;;;;;;;;;;5034496;28;20033;-61
2022/03/04 12:04:01;;;;;;;25.95;15.95;;;;;;;;;;5034168;28;20032;-61
2022/03/04 12:06:27;;;;;;;28.25;18.60;;;;;;;;;;5034327;28;20550;-61
2022/03/04 12:08:57;;;;;;;26.20;17.63;;;;;;;;;;5034798;28;20435;-61
2022/03/04 12:11:24;;;;;;;23.25;16.70;;;;;;;;;;5033779;28;20083;-60
2022/03/04 12:14:07;;;;;;;23.33;16.90;;;;;;;;;;5034049;28;20104;-61
2022/03/04 12:16:47;;;;;;;23.58;18.02;;;;;;;;;;5034590;28;20032;-61
2022/03/04 12:19:34;;;;;;;28.08;18.75;;;;;;;;;;5034225;28;20100;-60
2022/03/04 12:22:01;;;;;;;25.23;17.75;;;;;;;;;;5034225;28;20036;-61
2022/03/04 12:24:31;;;;;;;22.67;14.75;;;;;;;;;;5034522;28;20075;-60
2022/03/04 12:26:57;;;;;;;19.70;14.45;;;;;;;;;;5033709;28;20108;-61
2022/03/04 12:29:41;;;;;;;23.08;16.65;;;;;;;;;;5034013;28;20030;-60
2022/03/04 12:32:07;;;;;;;22.65;17.15;;;;;;;;;;5033934;28;20037;-60
2022/03/04 12:34:34;;;;;;;28.00;18.65;;;;;;;;;;5033394;28;20374;-60
2022/03/04 12:37:05;;;;;;;26.23;17.60;;;;;;;;;;5033295;28;20018;-60
2022/03/04 12:39:35;;;;;;;25.83;17.35;;;;;;;;;;5034289;28;20025;-60
2022/03/04 12:42:01;;;;;;;28.73;18.17;;;;;;;;;;5033326;28;20022;-61
2022/03/04 12:44:28;;;;;;;21.80;16.67;;;;;;;;;;5032535;28;20022;-60
2022/03/04 12:46:54;;;;;;;23.95;18.10;;;;;;;;;;5033672;28;20036;-60
2022/03/04 12:49:30;;;;;;;29.70;18.40;;;;;;;;;;5033808;28;20018;-61
2022/03/04 12:51:57;;;;;;;20.70;15.82;;;;;;;;;;5033347;28;20076;-60
2022/03/04 12:54:30;;;;;;;26.83;15.68;;;;;;;;;;5032903;28;20400;-60
2022/03/04 12:56:58;;;;;;;21.98;14.40;;;;;;;;;;5033148;28;20390;-60
2022/03/04 12:59:24;;;;;;;21.98;16.05;;;;;;;;;;5014260;28;20022;-62
2022/03/04 13:01:51;;;;;;;22.40;16.20;;;;;;;;;;5020777;28;20033;-61
2022/03/04 13:04:18;;;;;;;26.42;16.85;;;;;;;;;;5033443;28;20064;-60
2022/03/04 13:06:45;;;;;;;25.20;15.48;;;;;;;;;;5033341;28;20112;-60
2022/03/04 13:09:12;;;;;;;24.35;16.33;;;;;;;;;;5033193;28;20018;-60
2022/03/04 13:11:38;;;;;;;22.88;16.42;;;;;;;;;;5033412;28;20087;-61
2022/03/04 13:14:07;;;;;;;21.90;15.48;;;;;;;;;;5033927;28;20017;-60
2022/03/04 13:16:39;;;;;;;24.23;15.15;;;;;;;;;;5032988;28;20021;-61
2022/03/04 13:19:06;;;;;;;24.88;17.05;;;;;;;;;;5033738;28;20025;-60
2022/03/04 13:21:42;;;;;;;22.23;16.23;;;;;;;;;;5033386;28;20025;-59
2022/03/04 13:24:10;;;;;;;20.67;14.73;;;;;;;;;;5012952;28;20467;-60
2022/03/04 13:26:36;;;;;;;22.65;16.67;;;;;;;;;;5013408;28;20114;-61
2022/03/04 13:29:04;;;;;;;22.85;17.05;;;;;;;;;;5013389;28;20069;-61
2022/03/04 13:31:34;;;;;;;20.92;15.35;;;;;;;;;;5013520;28;20041;-62
2022/03/04 13:34:05;;;;;;;20.70;15.98;;;;;;;;;;5013609;28;20029;-61
2022/03/04 13:36:31;;;;;;;;;;;;;;;;;;5012644;28;20116;-60
2022/03/04 13:39:14;;;;;;;22.35;16.15;;;;;;;;;;5013236;28;20008;-59
2022/03/04 13:41:40;;;;;;;21.60;15.77;;;;;;;;;;5013697;28;20038;-60
2022/03/04 13:44:07;;;;;;;22.25;17.23;;;;;;;;;;5012495;28;20371;-61
2022/03/04 13:46:34;;;;;;;21.67;15.80;;;;;;;;;;5013263;28;20353;-60
2022/03/04 13:49:02;;;;;;;17.42;13.95;;;;;;;;;;5013230;28;20487;-60
2022/03/04 13:51:28;;;;;;;23.83;16.08;;;;;;;;;;5013548;28;20467;-61
2022/03/04 13:53:58;;;;;;;22.50;15.70;;;;;;;;;;5013297;28;20022;-60
2022/03/04 13:56:24;;;;;;;21.30;15.13;;;;;;;;;;5013434;28;20033;-60
2022/03/04 13:58:59;;;;;;;20.65;14.82;;;;;;;;;;5013422;28;20065;-62
2022/03/04 14:01:28;;;;;;;21.73;14.52;;;;;;;;;;5016047;28;20578;-60
2022/03/04 14:03:54;;;;;;;23.98;16.48;;;;;;;;;;5032278;28;20033;-61
2022/03/04 14:06:24;;;;;;;25.83;16.50;;;;;;;;;;5032652;28;20024;-48
2022/03/04 14:08:50;;;;;;;24.30;16.52;;;;;;;;;;5033520;28;20033;-50
2022/03/04 14:11:16;;;;;;;27.67;17.27;;;;;;;;;;5032824;28;20033;-52
2022/03/04 14:13:43;;;;;;;23.27;16.30;;;;;;;;;;5032898;28;20044;-54
2022/03/04 14:16:10;;;;;;;23.70;16.70;;;;;;;;;;5033469;28;20025;-52